Flight Track Log - Related Links

Times and Time Zones

All times are in EDT time to prevent confusion due to time zone crossing. See the GJS3707 flight status page for this flight to view local times or setup timezone preferences in your user account.

Time Position Orientation Groundspeed Altitude Reporting Facility
EDT Latitude Longitude Course Direction KTS MPH feet Rate Location/Type
Wed 03:43:23 PM 43.5889 -116.2986 309° West 195 224 4,800  Level Salt Lake Center
Wed 03:44:24 PM 43.6253 -116.3603 309° West 224 258 7,100 2,146 Climbing Salt Lake Center
Wed 03:45:26 PM 43.6789 -116.3019 38° Northeast 269 310 9,200 1,951 Climbing Salt Lake Center
Wed 03:46:27 PM 43.6844 -116.1728 87° East 304 350 11,100 1,463 Climbing Salt Lake Center
Wed 03:47:29 PM 43.6997 -116.0456 81° East 349 402 12,200 1,073 Climbing Salt Lake Center
Wed 03:48:30 PM 43.7153 -115.9064 81° East 378 435 13,300 1,220 Climbing Salt Lake Center
Wed 03:49:32 PM 43.7308 -115.7383 83° East 399 459 14,700 1,113 Climbing Salt Lake Center
Wed 03:50:34 PM 43.7469 -115.5914 81° East 405 466 15,600 1,415 Climbing Salt Lake Center
Wed 03:51:35 PM 43.7675 -115.4153 81° East 416 479 17,600 1,659 Climbing Salt Lake Center
Wed 03:52:37 PM 43.7844 -115.2625 81° East 422 486 19,000 1,512 Climbing Salt Lake Center
Wed 03:53:38 PM 43.8056 -115.0797 81° East 431 496 20,700 1,415 Climbing Salt Lake Center
Wed 03:54:40 PM 43.8231 -114.9236 81° East 432 497 21,900 1,016 Climbing Salt Lake Center
Wed 03:55:42 PM 43.8400 -114.7636 82° East 439 505 22,800 976 Climbing Salt Lake Center
Wed 03:56:43 PM 43.8600 -114.5739 82° East 446 513 23,900 1,024 Climbing Salt Lake Center
Wed 03:57:45 PM 43.8781 -114.4078 81° East 454 522 24,900 1,024 Climbing Salt Lake Center
Wed 03:58:46 PM 43.8989 -114.2158 81° East 453 521 26,000 1,024 Climbing Salt Lake Center
Wed 03:59:48 PM 43.9167 -114.0503 81° East 453 521 27,000 976 Climbing Salt Lake Center
Wed 04:00:49 PM 43.9342 -113.8783 82° East 450 518 28,000 1,024 Climbing Salt Lake Center
Wed 04:01:51 PM 43.9536 -113.6864 82° East 450 518 29,100 976 Climbing Salt Lake Center
Wed 04:02:52 PM 43.9675 -113.5239 83° East 446 513 30,000 878 Climbing Salt Lake Center
Wed 04:03:54 PM 43.9853 -113.3317 83° East 448 516 30,900 823 Climbing Salt Lake Center
Wed 04:04:56 PM 44.0022 -113.1681 82° East 448 516 31,700 683 Climbing Salt Lake Center
Wed 04:05:57 PM 44.0175 -113.0044 83° East 448 516 32,300 634 Climbing Salt Lake Center
Wed 04:06:59 PM 44.0358 -112.8117 82° East 452 520 33,000 634 Climbing Salt Lake Center
Wed 04:08:00 PM 44.0519 -112.6444 82° East 455 524 33,600 634 Climbing Salt Lake Center
Wed 04:09:02 PM 44.0683 -112.4489 83° East 458 527 34,300 634 Climbing Salt Lake Center
Wed 04:10:03 PM 44.0806 -112.2783 84° East 462 532 34,900 341 Climbing Salt Lake Center
Wed 04:11:05 PM 44.0892 -112.0803 86° East 462 532 35,000 49 Climbing Salt Lake Center
Wed 04:12:06 PM 44.0914 -111.9061 89° East 472 543 35,000  Level Salt Lake Center
Wed 04:13:07 PM 44.0922 -111.7261 90° East 484 557 35,000  Level Salt Lake Center
Wed 04:14:09 PM 44.0931 -111.5142 90° East 492 566 35,000  Level Salt Lake Center
Wed 04:15:10 PM 44.0936 -111.3353 90° East 491 565 35,000  Level Salt Lake Center
Wed 04:16:12 PM 44.0944 -111.1289 90° East 484 557 35,000  Level Salt Lake Center
Wed 04:17:13 PM 44.0942 -110.9506 90° East 485 558 35,000  Level Salt Lake Center
Wed 04:18:15 PM 44.0936 -110.7417 90° East 486 559 35,000  Level Salt Lake Center
Wed 04:19:16 PM 44.0925 -110.5650 90° East 481 554 35,000  Level Salt Lake Center
Wed 04:20:18 PM 44.0931 -110.3597 90° East 477 549 35,000  Level Salt Lake Center
Wed 04:21:19 PM 44.0917 -110.1872 91° East 471 542 35,000  Level Salt Lake Center
Wed 04:22:21 PM 44.0894 -110.0147 91° East 470 541 35,000  Level Salt Lake Center
Wed 04:23:22 PM 44.0864 -109.8100 91° East 472 543 35,000  Level Salt Lake Center
Wed 04:24:24 PM 44.0853 -109.6350 90° East 473 544 35,000  Level Salt Lake Center
Wed 04:25:25 PM 44.0819 -109.4256 91° East 473 544 35,000  Level Salt Lake Center
Wed 04:26:27 PM 44.0794 -109.2506 91° East 475 547 35,000  Level Salt Lake Center
Wed 04:27:28 PM 44.0767 -109.0764 91° East 474 545 35,000  Level Salt Lake Center
Wed 04:28:30 PM 44.0731 -108.8758 91° East 467 537 35,000  Level Salt Lake Center
Wed 04:29:31 PM 44.0694 -108.7036 92° East 467 537 35,000  Level Salt Lake Center
Wed 04:30:33 PM 44.0642 -108.5047 92° East 464 534 35,000  Level Salt Lake Center
Wed 04:31:34 PM 44.0603 -108.3339 92° East 465 535 35,000  Level Salt Lake Center
Wed 04:32:36 PM 44.0553 -108.1353 92° East 463 533 35,000  Level Salt Lake Center
Wed 04:33:37 PM 44.0517 -107.9664 92° East 460 529 35,000  Level Salt Lake Center
Wed 04:34:39 PM 44.0464 -107.7997 92° East 454 522 35,000  Level Salt Lake Center
Wed 04:35:41 PM 44.0406 -107.6039 92° East 456 525 35,000  Level Salt Lake Center
Wed 04:36:42 PM 44.0361 -107.4356 92° East 458 527 35,000  Level Salt Lake Center
Wed 04:37:43 PM 44.0289 -107.2389 93° East 457 526 35,000  Level Salt Lake Center
Wed 04:38:45 PM 44.0228 -107.0714 93° East 457 526 35,000  Level Salt Lake Center
Wed 04:39:18 PM 44.0194 -106.9619 92° East 453 521 35,000  Level Denver Center
Wed 04:40:20 PM 44.0136 -106.7964 93° East 450 518 35,000  Level Denver Center
Wed 04:40:48 PM 44.0092 -106.7117 94° East 452 520 35,000  Level Salt Lake Center
Wed 04:41:49 PM 44.0028 -106.5431 93° East 456 525 35,000  Level Salt Lake Center
Wed 04:42:23 PM 43.9997 -106.4317 92° East 457 526 35,000  Level Denver Center
Wed 04:42:51 PM 43.9978 -106.3453 92° East 459 528 35,000  Level Salt Lake Center
Wed 04:43:52 PM 44.0017 -106.1764 88° East 459 528 35,000  Level Salt Lake Center
Wed 04:44:26 PM 44.0036 -106.0589 89° East 467 537 35,000  Level Denver Center
Wed 04:45:28 PM 44.0044 -105.8872 90° East 465 535 35,000  Level Denver Center
Wed 04:46:30 PM 44.0036 -105.6886 90° East 462 532 35,000  Level Denver Center
Wed 04:47:31 PM 44.0039 -105.5156 90° East 466 536 35,000  Level Denver Center
Wed 04:48:33 PM 44.0044 -105.3428 90° East 466 536 35,000  Level Denver Center
Wed 04:49:34 PM 44.0039 -105.1400 90° East 470 541 35,000  Level Denver Center
Wed 04:50:36 PM 44.0019 -104.9686 91° East 466 536 35,000  Level Denver Center
Wed 04:51:37 PM 44.0019 -104.7667 90° East 467 537 35,000  Level Denver Center
Wed 04:52:38 PM 44.0000 -104.6231 91° East 467 537 35,000  Level Denver Center
Wed 04:53:40 PM 43.9986 -104.4236 90° East 462 532 35,000 -48 Level Denver Center
Wed 04:54:42 PM 43.9961 -104.2319 91° East 445 512 34,900  Descending Denver Center
Wed 04:55:43 PM 43.9933 -104.0942 92° East 447 514 35,000 49 Climbing Denver Center
Wed 04:56:45 PM 43.9914 -103.8672 91° East 462 532 35,000  Level Denver Center
Wed 04:57:46 PM 43.9886 -103.6911 91° East 475 547 35,000  Level Denver Center
Wed 04:58:48 PM 43.9861 -103.5147 91° East 477 549 35,000  Level Denver Center
Wed 04:59:49 PM 43.9833 -103.3125 91° East 470 541 35,000  Level Denver Center
Wed 05:00:51 PM 43.9808 -103.1417 91° East 465 535 35,000  Level Denver Center
Wed 05:01:53 PM 43.9800 -102.9386 90° East 470 541 35,000  Level Denver Center
Wed 05:02:54 PM 43.9808 -102.7756 90° East 467 537 35,000  Level Denver Center
Wed 05:03:56 PM 43.9806 -102.5986 90° East 464 534 35,000  Level Denver Center
Wed 05:04:57 PM 43.9781 -102.4203 91° East 464 534 35,000  Level Denver Center
Wed 05:05:59 PM 43.9828 -102.2064 88° East 467 537 35,000  Level Denver Center
Wed 05:07:00 PM 44.0342 -102.0314 68° East 491 565 35,000  Level Denver Center
Wed 05:08:14 PM 44.1428 -101.8517 50° Northeast 503 579 35,000  Level Denver Center
Wed 05:09:16 PM 44.2308 -101.7006 51° Northeast 502 578 35,000  Level Denver Center
Wed 05:10:17 PM 44.3181 -101.5478 51° Northeast 503 579 35,000  Level Denver Center
Wed 05:10:45 PM 44.3542 -101.4878 50° Northeast 504 580 35,000  Level Minneapolis Center
Wed 05:11:47 PM 44.4583 -101.3022 52° Northeast 505 581 35,000  Level Minneapolis Center
Wed 05:12:49 PM 44.5447 -101.1453 52° Northeast 507 583 35,000  Level Minneapolis Center
Wed 05:13:51 PM 44.6317 -100.9886 52° Northeast 508 585 35,000  Level Minneapolis Center
Wed 05:14:53 PM 44.7186 -100.8325 52° Northeast 508 585 35,000  Level Minneapolis Center
Wed 05:15:55 PM 44.8047 -100.6753 52° Northeast 507 583 35,000  Level Minneapolis Center
Wed 05:16:57 PM 44.8897 -100.5189 52° Northeast 505 581 35,000  Level Minneapolis Center
Wed 05:17:59 PM 44.9753 -100.3622 52° Northeast 502 578 35,000  Level Minneapolis Center
Wed 05:19:13 PM 45.0764 -100.1747 53° Northeast 497 572 35,000  Level Minneapolis Center
Wed 05:20:15 PM 45.1636 -100.0122 53° Northeast 499 574 35,000  Level Minneapolis Center
Wed 05:21:17 PM 45.2669 -99.8175 53° Northeast 505 581 35,000  Level Minneapolis Center
Wed 05:22:19 PM 45.3492 -99.6594 53° Northeast 499 574 35,000  Level Minneapolis Center
Wed 05:23:21 PM 45.4322 -99.5031 53° Northeast 495 570 35,000  Level Minneapolis Center
Wed 05:24:23 PM 45.5147 -99.3461 53° Northeast 495 570 35,000  Level Minneapolis Center
Wed 05:25:25 PM 45.5969 -99.1878 53° Northeast 496 571 35,000  Level Minneapolis Center
Wed 05:26:27 PM 45.6783 -99.0294 54° Northeast 496 571 35,000  Level Minneapolis Center
Wed 05:27:29 PM 45.7619 -98.8681 53° Northeast 501 577 35,000  Level Minneapolis Center
Wed 05:28:31 PM 45.8603 -98.6747 54° Northeast 501 577 35,000  Level Minneapolis Center
Wed 05:29:33 PM 45.9419 -98.5117 54° Northeast 503 579 35,000  Level Minneapolis Center
Wed 05:30:35 PM 46.0242 -98.3481 54° Northeast 504 580 35,000 48 Level Minneapolis Center
Wed 05:31:37 PM 46.0831 -98.1692 65° Northeast 494 568 35,100 -48 Climbing Minneapolis Center
Wed 05:32:39 PM 46.1447 -97.9722 66° East 497 572 34,900 -48 Descending Minneapolis Center
Wed 05:33:41 PM 46.2058 -97.8006 63° Northeast 487 560 35,000  Climbing Minneapolis Center
Wed 05:34:43 PM 46.2442 -97.6219 73° East 476 548 34,900  Descending Minneapolis Center
Wed 05:35:45 PM 46.2672 -97.4364 80° East 471 542 35,000 48 Climbing Minneapolis Center
Wed 05:36:47 PM 46.2906 -97.2517 80° East 470 541 35,000  Level Minneapolis Center
Wed 05:37:49 PM 46.3178 -97.0286 80° East 474 545 35,000  Level Minneapolis Center
Wed 05:38:51 PM 46.3400 -96.8422 80° East 471 542 35,000  Level Minneapolis Center
Wed 05:39:53 PM 46.3639 -96.6475 80° East 485 558 35,000  Level Minneapolis Center
Wed 05:40:54 PM 46.3858 -96.4492 81° East 498 573 35,000  Level Minneapolis Center
Wed 05:41:56 PM 46.4089 -96.2500 80° East 503 579 35,000  Level Minneapolis Center
Wed 05:42:58 PM 46.4325 -96.0519 80° East 502 578 35,000  Level Minneapolis Center
Wed 05:44:00 PM 46.4594 -95.8169 80° East 496 571 35,000  Level Minneapolis Center
Wed 05:45:02 PM 46.4806 -95.6189 81° East 499 574 35,000  Level Minneapolis Center
Wed 05:46:04 PM 46.5047 -95.4067 81° East 499 574 35,000  Level Minneapolis Center
Wed 05:47:06 PM 46.5264 -95.2089 81° East 500 575 35,000  Level Minneapolis Center
Wed 05:48:08 PM 46.5464 -95.0111 82° East 497 572 35,000  Level Minneapolis Center
Wed 05:49:10 PM 46.5669 -94.8133 81° East 497 572 35,000  Level Minneapolis Center
Wed 05:50:12 PM 46.5867 -94.6150 82° East 498 573 35,000  Level Minneapolis Center
Wed 05:51:14 PM 46.6067 -94.4150 82° East 501 577 35,000  Level Minneapolis Center
Wed 05:52:16 PM 46.6286 -94.1761 82° East 500 575 35,000  Level Minneapolis Center
Wed 05:53:18 PM 46.6489 -93.9781 81° East 500 575 35,000  Level Minneapolis Center
Wed 05:54:20 PM 46.6681 -93.7797 82° East 498 573 35,000  Level Minneapolis Center
Wed 05:55:22 PM 46.6856 -93.5819 83° East 497 572 35,000  Level Minneapolis Center
Wed 05:56:24 PM 46.7033 -93.3822 83° East 501 577 35,000  Level Minneapolis Center
Wed 05:57:26 PM 46.7242 -93.1406 83° East 505 581 35,000  Level Minneapolis Center
Wed 05:58:28 PM 46.7414 -92.9328 83° East 516 594 35,000  Level Minneapolis Center
Wed 05:59:30 PM 46.7586 -92.7269 83° East 517 595 35,000  Level Minneapolis Center
Wed 06:00:32 PM 46.7758 -92.5222 83° East 515 593 35,000  Level Minneapolis Center
Wed 06:01:34 PM 46.7775 -92.3156 89° East 514 592 35,000  Level Minneapolis Center
Wed 06:02:36 PM 46.7303 -92.1297 110° East 500 575 35,000  Level Minneapolis Center
Wed 06:03:38 PM 46.6214 -91.9647 134° Southeast 480 552 35,000  Level Minneapolis Center
Wed 06:04:40 PM 46.5028 -91.8972 159° South 462 532 35,000  Level Minneapolis Center
Wed 06:05:42 PM 46.3853 -91.8256 157° South 457 526 35,000  Level Minneapolis Center
Wed 06:06:44 PM 46.2697 -91.7461 155° Southeast 459 528 35,000  Level Minneapolis Center
Wed 06:07:46 PM 46.1397 -91.6467 152° Southeast 458 527 35,000  Level Minneapolis Center
Wed 06:08:48 PM 46.0239 -91.5547 151° Southeast 459 528 35,000  Level Minneapolis Center
Wed 06:09:50 PM 45.9189 -91.4383 142° Southeast 486 559 35,000  Level Minneapolis Center
Wed 06:10:52 PM 45.8269 -91.2978 133° Southeast 486 559 35,000  Level Minneapolis Center
Wed 06:11:54 PM 45.7328 -91.1517 133° Southeast 497 572 35,000  Level Minneapolis Center
Wed 06:12:56 PM 45.6436 -91.0078 132° Southeast 489 563 35,000  Level Minneapolis Center
Wed 06:13:59 PM 45.5419 -90.8356 130° Southeast 479 551 35,000  Level Minneapolis Center
Wed 06:15:01 PM 45.4583 -90.6897 129° Southeast 479 551 35,000  Level Minneapolis Center
Wed 06:16:03 PM 45.3725 -90.5447 130° Southeast 481 554 35,000  Level Minneapolis Center
Wed 06:17:05 PM 45.2825 -90.4064 133° Southeast 481 554 35,000  Level Minneapolis Center
Wed 06:18:07 PM 45.1647 -90.3292 155° Southeast 467 537 35,000  Level Minneapolis Center
Wed 06:19:09 PM 45.0442 -90.2689 161° South 464 534 35,000 -145 Level Minneapolis Center
Wed 06:20:11 PM 44.8978 -90.1964 161° South 465 535 34,700 -677 Descending Minneapolis Center
Wed 06:21:13 PM 44.7731 -90.1322 160° South 463 533 33,600 -1,016 Descending Minneapolis Center
Wed 06:22:15 PM 44.6547 -90.0744 161° South 453 521 32,600 -968 Descending Minneapolis Center
Wed 06:23:17 PM 44.5364 -90.0161 161° South 451 519 31,600 -774 Descending Minneapolis Center
Wed 06:24:19 PM 44.4122 -89.9539 160° South 468 539 31,000 -290 Descending Minneapolis Center
Wed 06:25:21 PM 44.2925 -89.8944 160° South 460 529 31,000 -339 Level Minneapolis Center
Wed 06:26:23 PM 44.1536 -89.8269 161° South 454 522 30,300 -971 Descending Minneapolis Center
Wed 06:27:06 PM 44.0739 -89.7883 161° South 456 525 29,300 -1,429 Descending Chicago Center
Wed 06:28:08 PM 43.9533 -89.7303 161° South 459 528 27,800 -1,452 Descending Chicago Center
Wed 06:29:10 PM 43.8392 -89.6739 160° South 442 509 26,300 -1,452 Descending Chicago Center
Wed 06:30:12 PM 43.7278 -89.6186 160° South 429 494 24,800 -1,597 Descending Chicago Center
Wed 06:31:14 PM 43.5953 -89.5572 161° South 430 495 23,000 -1,597 Descending Chicago Center
Wed 06:32:16 PM 43.4872 -89.5031 160° South 419 482 21,500 -1,597 Descending Chicago Center
Wed 06:33:18 PM 43.3833 -89.4544 161° South 404 465 19,700 -1,694 Descending Chicago Center
Wed 06:34:20 PM 43.2875 -89.4089 161° South 378 435 18,000 -1,500 Descending Chicago Center
Wed 06:35:22 PM 43.1931 -89.3631 161° South 365 420 16,600 -1,452 Descending Chicago Center
Wed 06:36:24 PM 43.0814 -89.3142 162° South 363 418 15,000 -1,403 Descending Chicago Center
Wed 06:37:26 PM 42.9842 -89.2769 164° South 364 419 13,700 -1,016 Descending Chicago Center
Wed 06:38:28 PM 42.8917 -89.2389 163° South 352 405 12,900 -387 Descending Chicago Center
Wed 06:39:30 PM 42.7981 -89.2019 164° South 351 404 12,900 -387 Level Chicago Center
Wed 06:40:32 PM 42.7056 -89.1642 163° South 348 400 12,100 -919 Descending Chicago Center
Wed 06:41:34 PM 42.6008 -89.1231 164° South 337 388 11,000 -581 Descending Chicago Center
Wed 06:42:36 PM 42.5347 -89.0311 134° Southeast 360 414 10,900 -48 Descending Chicago Center
Wed 06:43:38 PM 42.4967 -88.9019 112° Southeast 368 423 10,900 -339 Level Chicago Center
Wed 06:44:40 PM 42.4619 -88.7892 113° Southeast 332 382 10,200 -823 Descending Chicago Center
Wed 06:45:42 PM 42.4322 -88.6897 112° Southeast 293 337 9,200 -629 Descending Chicago Center
Wed 06:46:44 PM 42.3972 -88.5744 112° Southeast 285 328 8,900 -145 Descending Chicago Center
Wed 06:47:46 PM 42.3622 -88.4758 116° Southeast 290 334 8,900 -242 Level Chicago Center
Wed 06:48:48 PM 42.3197 -88.4025 128° Southeast 282 325 8,400 -919 Descending Chicago Center
Wed 06:49:50 PM 42.2622 -88.3081 129° Southeast 274 315 7,000 -1,403 Descending Chicago Center
Wed 06:50:52 PM 42.2167 -88.2272 127° Southeast 272 313 5,500 -968 Descending Chicago Center
Wed 06:51:54 PM 42.1744 -88.1517 127° Southeast 261 300 5,000 -581 Descending Chicago Center
Wed 06:52:56 PM 42.1319 -88.0908 133° Southeast 235 270 4,300 -1,096 Descending Chicago Center
Wed 06:53:49 PM 42.0833 -88.0500 148° Southeast 197 227 2,900 -1,585 Descending Chicago TRACON

Login

Don't have an account? Register now (free) for customized features, flight alerts, and more!